| Temperature (°F) | Max | Average | Min |
|---|---|---|---|
| Max Temperature | 90 | 71.65 | 60 |
| Avg Temperature | 73.29 | 58.86 | 50.57 |
| Min Temperature | 54 | 47.13 | 36 |
| Dew Point (°F) | Max | Average | Min |
|---|---|---|---|
| Dew Point | 55 | 43.7 | 33 |
| Precipitation (in) | Max | Average | Min | Sum |
|---|---|---|---|---|
| Precipitation | 0.70 | 0.05 | 0.00 | 1.42 |
| Snowdepth | 0.00 | 0.00 | 0.00 | 0.00 |
| Wind (mph) | Max | Average | Min |
|---|---|---|---|
| Wind | 20 | 6.18 | 0 |
| Gust Wind | 35 | 1.18 | 0 |
| Sea Level Pressure (in) | Max | Average | Min |
|---|---|---|---|
| Sea Level Pressure | 30.2 | 29.89 | 29.57 |
| Date | Temperature (°F) | Dew Point (°F) | Humidity (%) | Wind Speed (mph) | Pressure (in) | Precipitation (in) | ||||||||||
|---|---|---|---|---|---|---|---|---|---|---|---|---|---|---|---|---|
| Max | Avg | Min | Max | Avg | Min | Max | Avg | Min | Max | Avg | Min | Max | Avg | Min | ||
| 5/31/2021 | 90 | 73.3 | 52 | 53 | 47.7 | 44 | 72 | 43.6 | 22 | 12 | 5.0 | 0 | 29.9 | 29.9 | 29.8 | 0.00 |
| 5/30/2021 | 86 | 68.7 | 51 | 49 | 46.0 | 43 | 77 | 48.1 | 24 | 12 | 4.4 | 0 | 29.9 | 29.9 | 29.8 | 0.00 |
| 5/29/2021 | 82 | 64.1 | 47 | 48 | 43.6 | 39 | 77 | 51.1 | 22 | 10 | 6.0 | 0 | 29.9 | 29.8 | 29.7 | 0.00 |
| 5/28/2021 | 71 | 58.6 | 48 | 45 | 42.3 | 39 | 83 | 57.5 | 33 | 17 | 7.2 | 0 | 30.1 | 30.0 | 29.9 | 0.09 |
| 5/27/2021 | 65 | 56.0 | 50 | 50 | 44.8 | 38 | 86 | 67.5 | 42 | 20 | 12.5 | 9 | 30.0 | 29.9 | 29.8 | 0.04 |
| 5/26/2021 | 75 | 60.8 | 45 | 48 | 43.8 | 39 | 86 | 56.3 | 28 | 10 | 4.1 | 0 | 30.0 | 29.9 | 29.8 | 0.06 |
| 5/25/2021 | 64 | 57.0 | 54 | 53 | 49.2 | 44 | 90 | 76.4 | 52 | 16 | 4.9 | 0 | 30.0 | 29.9 | 29.8 | 0.13 |
| 5/24/2021 | 65 | 56.5 | 52 | 55 | 50.2 | 46 | 90 | 79.7 | 61 | 16 | 6.6 | 0 | 29.9 | 29.9 | 29.8 | 0.04 |
| 5/23/2021 | 66 | 56.2 | 49 | 50 | 44.7 | 41 | 74 | 65.6 | 56 | 13 | 7.9 | 0 | 29.9 | 29.9 | 29.9 | 0.00 |
| 5/22/2021 | 72 | 56.6 | 45 | 46 | 41.3 | 37 | 77 | 58.4 | 32 | 14 | 4.7 | 0 | 30.0 | 29.9 | 29.8 | 0.00 |
| 5/21/2021 | 66 | 53.8 | 41 | 44 | 40.8 | 37 | 86 | 62.4 | 43 | 10 | 3.9 | 0 | 30.0 | 30.0 | 29.9 | 0.14 |
| 5/20/2021 | 61 | 51.2 | 44 | 44 | 39.4 | 36 | 79 | 64.7 | 46 | 20 | 6.8 | 0 | 30.0 | 29.9 | 29.9 | 0.09 |
| 5/19/2021 | 60 | 50.6 | 43 | 42 | 38.5 | 35 | 80 | 63.8 | 47 | 18 | 5.7 | 0 | 29.9 | 29.9 | 29.8 | 0.00 |
| 5/18/2021 | 65 | 55.4 | 48 | 43 | 38.1 | 35 | 74 | 54.4 | 37 | 16 | 9.1 | 5 | 30.0 | 29.9 | 29.9 | 0.00 |
| 5/17/2021 | 69 | 56.2 | 47 | 49 | 45.3 | 43 | 86 | 67.9 | 49 | 18 | 7.0 | 0 | 29.9 | 29.8 | 29.7 | 0.00 |
| 5/16/2021 | 84 | 66.0 | 47 | 49 | 44.8 | 40 | 80 | 50.5 | 24 | 15 | 4.8 | 0 | 29.8 | 29.7 | 29.6 | 0.00 |
| 5/15/2021 | 82 | 64.2 | 45 | 48 | 43.8 | 38 | 74 | 50.2 | 27 | 14 | 6.4 | 0 | 29.9 | 29.8 | 29.7 | 0.00 |
| 5/14/2021 | 83 | 65.9 | 54 | 49 | 46.5 | 42 | 75 | 52.3 | 24 | 16 | 6.5 | 0 | 29.9 | 29.8 | 29.8 | 0.00 |
| 5/13/2021 | 82 | 65.8 | 49 | 50 | 46.1 | 41 | 77 | 52.0 | 26 | 14 | 7.4 | 0 | 29.9 | 29.9 | 29.8 | 0.00 |
| 5/12/2021 | 81 | 64.2 | 45 | 49 | 44.8 | 41 | 80 | 52.9 | 27 | 12 | 5.3 | 0 | 29.9 | 29.9 | 29.8 | 0.00 |
| 5/11/2021 | 77 | 60.9 | 44 | 45 | 41.5 | 38 | 80 | 53.1 | 26 | 14 | 7.1 | 0 | 30.0 | 29.9 | 29.8 | 0.00 |
| 5/10/2021 | 72 | 57.5 | 47 | 47 | 42.9 | 40 | 83 | 61.4 | 33 | 13 | 6.8 | 0 | 30.0 | 30.0 | 29.9 | 0.00 |
| 5/9/2021 | 68 | 56.5 | 48 | 45 | 43.9 | 43 | 77 | 63.6 | 45 | 12 | 4.7 | 0 | 30.1 | 30.0 | 30.0 | 0.00 |
| 5/8/2021 | 63 | 51.0 | 36 | 43 | 38.0 | 33 | 86 | 63.4 | 42 | 12 | 4.8 | 0 | 30.2 | 30.1 | 30.1 | 0.05 |
| 5/7/2021 | 61 | 51.8 | 41 | 43 | 38.5 | 34 | 83 | 62.4 | 38 | 18 | 8.8 | 0 | 30.2 | 30.1 | 30.0 | 0.05 |
| 5/6/2021 | 64 | 56.8 | 48 | 50 | 44.1 | 39 | 80 | 63.4 | 46 | 15 | 9.2 | 3 | 30.0 | 29.8 | 29.6 | 0.00 |
| 5/5/2021 | 80 | 62.8 | 47 | 52 | 45.4 | 40 | 77 | 55.4 | 32 | 8 | 3.7 | 0 | 29.9 | 29.7 | 29.6 | 0.00 |
| 5/4/2021 | 70 | 59.3 | 51 | 51 | 45.8 | 37 | 89 | 64.1 | 31 | 12 | 4.9 | 0 | 30.0 | 30.0 | 29.9 | 0.03 |
| 5/3/2021 | 69 | 55.9 | 46 | 51 | 44.6 | 39 | 84 | 67.3 | 45 | 9 | 4.1 | 0 | 30.0 | 30.0 | 29.9 | 0.00 |
| 5/2/2021 | 68 | 55.7 | 47 | 46 | 42.8 | 38 | 86 | 63.9 | 39 | 12 | 4.2 | 0 | 30.0 | 30.0 | 29.9 | 0.00 |
| 5/1/2021 | 60 | 55.6 | 50 | 53 | 45.9 | 42 | 90 | 70.8 | 55 | 14 | 7.0 | 0 | 30.0 | 29.9 | 29.9 | 0.70 |